sensor_id;sensor_type;location;lat;lon;timestamp;P1;durP1;ratioP1;P2;durP2;ratioP2
39674;SDS011;27790;50.840;4.386;2022-12-05T00:01:54;70.85;;;29.75;;
39674;SDS011;27790;50.840;4.386;2022-12-05T00:04:20;71.22;;;29.73;;
39674;SDS011;27790;50.840;4.386;2022-12-05T00:06:45;73.80;;;30.35;;
39674;SDS011;27790;50.840;4.386;2022-12-05T00:09:11;72.50;;;29.38;;
39674;SDS011;27790;50.840;4.386;2022-12-05T00:11:39;68.13;;;28.67;;
39674;SDS011;27790;50.840;4.386;2022-12-05T00:14:06;65.43;;;25.33;;
39674;SDS011;27790;50.840;4.386;2022-12-05T00:16:34;60.40;;;25.58;;
39674;SDS011;27790;50.840;4.386;2022-12-05T00:19:01;65.90;;;26.75;;
39674;SDS011;27790;50.840;4.386;2022-12-05T00:21:30;69.32;;;28.30;;
39674;SDS011;27790;50.840;4.386;2022-12-05T00:23:57;70.82;;;26.88;;
39674;SDS011;27790;50.840;4.386;2022-12-05T00:26:24;69.68;;;28.20;;
39674;SDS011;27790;50.840;4.386;2022-12-05T00:28:50;67.20;;;25.73;;
39674;SDS011;27790;50.840;4.386;2022-12-05T00:31:17;62.38;;;25.30;;
39674;SDS011;27790;50.840;4.386;2022-12-05T00:33:44;71.25;;;27.50;;
39674;SDS011;27790;50.840;4.386;2022-12-05T00:36:12;65.95;;;27.33;;
39674;SDS011;27790;50.840;4.386;2022-12-05T00:38:39;55.38;;;24.20;;
39674;SDS011;27790;50.840;4.386;2022-12-05T00:41:27;60.15;;;26.83;;
39674;SDS011;27790;50.840;4.386;2022-12-05T00:43:53;58.22;;;24.35;;
39674;SDS011;27790;50.840;4.386;2022-12-05T00:46:20;59.47;;;25.02;;
39674;SDS011;27790;50.840;4.386;2022-12-05T00:48:49;56.72;;;24.08;;
39674;SDS011;27790;50.840;4.386;2022-12-05T00:51:18;59.47;;;22.95;;
39674;SDS011;27790;50.840;4.386;2022-12-05T00:53:46;52.78;;;22.55;;
39674;SDS011;27790;50.840;4.386;2022-12-05T00:56:13;57.97;;;25.15;;
39674;SDS011;27790;50.840;4.386;2022-12-05T00:58:39;59.72;;;22.45;;
39674;SDS011;27790;50.840;4.386;2022-12-05T01:01:08;55.90;;;23.65;;
39674;SDS011;27790;50.840;4.386;2022-12-05T01:03:42;48.63;;;20.48;;
39674;SDS011;27790;50.840;4.386;2022-12-05T01:06:08;55.60;;;23.20;;
39674;SDS011;27790;50.840;4.386;2022-12-05T01:08:34;48.10;;;21.65;;
39674;SDS011;27790;50.840;4.386;2022-12-05T01:11:01;53.97;;;22.58;;
39674;SDS011;27790;50.840;4.386;2022-12-05T01:13:28;53.42;;;22.58;;
39674;SDS011;27790;50.840;4.386;2022-12-05T01:15:54;50.75;;;20.40;;
39674;SDS011;27790;50.840;4.386;2022-12-05T01:18:20;49.65;;;21.48;;
39674;SDS011;27790;50.840;4.386;2022-12-05T01:20:47;46.78;;;20.83;;
39674;SDS011;27790;50.840;4.386;2022-12-05T01:23:13;52.55;;;21.05;;
39674;SDS011;27790;50.840;4.386;2022-12-05T01:25:39;50.97;;;20.70;;
39674;SDS011;27790;50.840;4.386;2022-12-05T01:28:10;62.03;;;22.92;;
39674;SDS011;27790;50.840;4.386;2022-12-05T01:30:41;45.78;;;20.35;;
39674;SDS011;27790;50.840;4.386;2022-12-05T01:33:08;51.00;;;21.48;;
39674;SDS011;27790;50.840;4.386;2022-12-05T01:35:34;50.88;;;20.55;;
39674;SDS011;27790;50.840;4.386;2022-12-05T01:38:01;51.58;;;20.55;;
39674;SDS011;27790;50.840;4.386;2022-12-05T01:40:28;58.00;;;22.50;;
39674;SDS011;27790;50.840;4.386;2022-12-05T01:42:54;55.50;;;22.73;;
39674;SDS011;27790;50.840;4.386;2022-12-05T01:45:23;50.90;;;22.25;;
39674;SDS011;27790;50.840;4.386;2022-12-05T01:48:02;50.80;;;19.60;;
39674;SDS011;27790;50.840;4.386;2022-12-05T01:50:32;49.25;;;21.15;;
39674;SDS011;27790;50.840;4.386;2022-12-05T01:52:59;53.38;;;23.45;;
39674;SDS011;27790;50.840;4.386;2022-12-05T01:55:26;54.60;;;20.98;;
39674;SDS011;27790;50.840;4.386;2022-12-05T01:57:52;55.20;;;21.98;;
39674;SDS011;27790;50.840;4.386;2022-12-05T02:00:18;50.78;;;22.67;;
39674;SDS011;27790;50.840;4.386;2022-12-05T02:02:46;70.40;;;24.73;;
39674;SDS011;27790;50.840;4.386;2022-12-05T02:05:21;59.35;;;24.25;;
39674;SDS011;27790;50.840;4.386;2022-12-05T02:07:54;55.00;;;24.42;;
39674;SDS011;27790;50.840;4.386;2022-12-05T02:10:21;52.28;;;23.85;;
39674;SDS011;27790;50.840;4.386;2022-12-05T02:12:48;57.33;;;25.20;;
39674;SDS011;27790;50.840;4.386;2022-12-05T02:42:09;73.20;;;26.17;;
39674;SDS011;27790;50.840;4.386;2022-12-05T02:44:44;75.20;;;23.98;;
39674;SDS011;27790;50.840;4.386;2022-12-05T02:47:21;63.60;;;26.60;;
39674;SDS011;27790;50.840;4.386;2022-12-05T02:49:50;67.43;;;28.45;;
39674;SDS011;27790;50.840;4.386;2022-12-05T02:52:17;67.53;;;25.90;;
39674;SDS011;27790;50.840;4.386;2022-12-05T02:54:45;67.80;;;26.27;;
39674;SDS011;27790;50.840;4.386;2022-12-05T02:57:13;78.20;;;27.60;;
39674;SDS011;27790;50.840;4.386;2022-12-05T02:59:40;66.45;;;27.35;;
39674;SDS011;27790;50.840;4.386;2022-12-05T03:02:07;65.30;;;26.80;;
39674;SDS011;27790;50.840;4.386;2022-12-05T03:04:45;62.13;;;24.55;;
39674;SDS011;27790;50.840;4.386;2022-12-05T03:07:11;65.55;;;26.13;;
39674;SDS011;27790;50.840;4.386;2022-12-05T03:12:30;64.20;;;25.23;;
39674;SDS011;27790;50.840;4.386;2022-12-05T03:15:05;65.28;;;27.73;;
39674;SDS011;27790;50.840;4.386;2022-12-05T03:17:37;67.07;;;26.25;;
39674;SDS011;27790;50.840;4.386;2022-12-05T03:20:18;72.03;;;27.15;;
39674;SDS011;27790;50.840;4.386;2022-12-05T03:22:53;65.78;;;26.65;;
39674;SDS011;27790;50.840;4.386;2022-12-05T03:25:29;75.93;;;28.92;;
39674;SDS011;27790;50.840;4.386;2022-12-05T03:28:05;66.60;;;28.02;;
39674;SDS011;27790;50.840;4.386;2022-12-05T03:30:43;62.47;;;26.70;;
39674;SDS011;27790;50.840;4.386;2022-12-05T03:41:02;59.60;;;23.55;;
39674;SDS011;27790;50.840;4.386;2022-12-05T03:43:39;68.10;;;25.08;;
39674;SDS011;27790;50.840;4.386;2022-12-05T03:46:17;56.97;;;25.05;;
39674;SDS011;27790;50.840;4.386;2022-12-05T03:51:30;62.85;;;24.50;;
39674;SDS011;27790;50.840;4.386;2022-12-05T03:54:04;50.30;;;23.77;;
39674;SDS011;27790;50.840;4.386;2022-12-05T03:56:36;53.25;;;23.15;;
39674;SDS011;27790;50.840;4.386;2022-12-05T03:59:15;53.50;;;24.13;;
39674;SDS011;27790;50.840;4.386;2022-12-05T04:01:53;43.47;;;20.70;;
39674;SDS011;27790;50.840;4.386;2022-12-05T04:04:26;45.22;;;21.55;;
39674;SDS011;27790;50.840;4.386;2022-12-05T04:06:56;48.00;;;22.15;;
39674;SDS011;27790;50.840;4.386;2022-12-05T04:09:29;43.95;;;21.08;;
39674;SDS011;27790;50.840;4.386;2022-12-05T04:12:01;50.90;;;20.92;;
39674;SDS011;27790;50.840;4.386;2022-12-05T04:17:15;49.75;;;20.98;;
39674;SDS011;27790;50.840;4.386;2022-12-05T04:19:52;44.65;;;20.63;;
39674;SDS011;27790;50.840;4.386;2022-12-05T04:22:38;55.55;;;21.35;;
39674;SDS011;27790;50.840;4.386;2022-12-05T04:25:06;48.88;;;20.00;;
39674;SDS011;27790;50.840;4.386;2022-12-05T04:27:50;53.08;;;21.65;;
39674;SDS011;27790;50.840;4.386;2022-12-05T04:30:24;53.40;;;21.35;;
39674;SDS011;27790;50.840;4.386;2022-12-05T04:33:01;50.28;;;22.70;;
39674;SDS011;27790;50.840;4.386;2022-12-05T04:38:22;47.50;;;20.17;;
39674;SDS011;27790;50.840;4.386;2022-12-05T04:40:59;38.92;;;18.83;;
39674;SDS011;27790;50.840;4.386;2022-12-05T04:43:32;41.78;;;18.58;;
39674;SDS011;27790;50.840;4.386;2022-12-05T04:46:01;41.20;;;19.80;;
39674;SDS011;27790;50.840;4.386;2022-12-05T04:48:31;49.22;;;21.40;;
39674;SDS011;27790;50.840;4.386;2022-12-05T04:51:01;45.47;;;20.73;;
39674;SDS011;27790;50.840;4.386;2022-12-05T04:53:30;42.53;;;20.35;;
39674;SDS011;27790;50.840;4.386;2022-12-05T04:55:57;42.80;;;19.30;;
39674;SDS011;27790;50.840;4.386;2022-12-05T04:58:24;42.88;;;19.15;;
39674;SDS011;27790;50.840;4.386;2022-12-05T05:00:56;49.75;;;21.13;;
39674;SDS011;27790;50.840;4.386;2022-12-05T05:03:33;45.17;;;18.73;;
39674;SDS011;27790;50.840;4.386;2022-12-05T05:06:04;41.08;;;20.50;;
39674;SDS011;27790;50.840;4.386;2022-12-05T05:08:30;42.92;;;19.55;;
39674;SDS011;27790;50.840;4.386;2022-12-05T05:11:00;47.60;;;20.45;;
39674;SDS011;27790;50.840;4.386;2022-12-05T05:13:38;48.60;;;19.13;;
39674;SDS011;27790;50.840;4.386;2022-12-05T05:16:04;40.83;;;19.88;;
39674;SDS011;27790;50.840;4.386;2022-12-05T05:18:30;41.47;;;19.80;;
39674;SDS011;27790;50.840;4.386;2022-12-05T05:20:57;45.25;;;20.60;;
39674;SDS011;27790;50.840;4.386;2022-12-05T05:23:23;46.55;;;20.30;;
39674;SDS011;27790;50.840;4.386;2022-12-05T05:25:52;43.08;;;21.55;;
39674;SDS011;27790;50.840;4.386;2022-12-05T05:28:18;53.45;;;21.27;;
39674;SDS011;27790;50.840;4.386;2022-12-05T05:30:44;40.88;;;21.02;;
39674;SDS011;27790;50.840;4.386;2022-12-05T05:33:10;46.60;;;21.67;;
39674;SDS011;27790;50.840;4.386;2022-12-05T05:35:36;48.33;;;20.38;;
39674;SDS011;27790;50.840;4.386;2022-12-05T05:38:02;47.85;;;23.40;;
39674;SDS011;27790;50.840;4.386;2022-12-05T05:40:28;45.33;;;20.63;;
39674;SDS011;27790;50.840;4.386;2022-12-05T05:42:54;48.10;;;24.00;;
39674;SDS011;27790;50.840;4.386;2022-12-05T05:45:20;52.42;;;23.33;;
39674;SDS011;27790;50.840;4.386;2022-12-05T05:47:49;51.00;;;22.33;;
39674;SDS011;27790;50.840;4.386;2022-12-05T05:50:14;51.40;;;23.13;;
39674;SDS011;27790;50.840;4.386;2022-12-05T05:52:40;57.75;;;24.88;;
39674;SDS011;27790;50.840;4.386;2022-12-05T05:55:06;52.50;;;22.08;;
39674;SDS011;27790;50.840;4.386;2022-12-05T05:57:33;56.40;;;22.65;;
39674;SDS011;27790;50.840;4.386;2022-12-05T05:59:59;58.40;;;24.40;;
39674;SDS011;27790;50.840;4.386;2022-12-05T06:02:25;57.00;;;23.40;;
39674;SDS011;27790;50.840;4.386;2022-12-05T06:04:55;49.47;;;22.90;;
39674;SDS011;27790;50.840;4.386;2022-12-05T06:07:20;55.03;;;24.30;;
39674;SDS011;27790;50.840;4.386;2022-12-05T06:09:46;57.45;;;24.38;;
39674;SDS011;27790;50.840;4.386;2022-12-05T06:12:11;55.08;;;23.13;;
39674;SDS011;27790;50.840;4.386;2022-12-05T06:14:37;59.63;;;23.83;;
39674;SDS011;27790;50.840;4.386;2022-12-05T06:17:02;61.03;;;26.23;;
39674;SDS011;27790;50.840;4.386;2022-12-05T06:19:29;58.15;;;24.15;;
39674;SDS011;27790;50.840;4.386;2022-12-05T06:21:54;58.13;;;22.58;;
39674;SDS011;27790;50.840;4.386;2022-12-05T06:24:20;55.75;;;22.45;;
39674;SDS011;27790;50.840;4.386;2022-12-05T06:26:45;47.22;;;22.60;;
39674;SDS011;27790;50.840;4.386;2022-12-05T06:29:11;56.78;;;23.52;;
39674;SDS011;27790;50.840;4.386;2022-12-05T06:31:36;59.15;;;26.10;;
39674;SDS011;27790;50.840;4.386;2022-12-05T06:34:03;51.17;;;23.58;;
39674;SDS011;27790;50.840;4.386;2022-12-05T06:36:29;50.38;;;23.65;;
39674;SDS011;27790;50.840;4.386;2022-12-05T06:38:55;51.08;;;23.45;;
39674;SDS011;27790;50.840;4.386;2022-12-05T06:41:21;48.90;;;22.20;;
39674;SDS011;27790;50.840;4.386;2022-12-05T06:43:50;46.55;;;21.17;;
39674;SDS011;27790;50.840;4.386;2022-12-05T06:46:17;52.40;;;23.23;;
39674;SDS011;27790;50.840;4.386;2022-12-05T06:48:42;46.30;;;21.58;;
39674;SDS011;27790;50.840;4.386;2022-12-05T06:51:09;57.28;;;24.63;;
39674;SDS011;27790;50.840;4.386;2022-12-05T06:53:36;47.30;;;23.08;;
39674;SDS011;27790;50.840;4.386;2022-12-05T06:56:03;46.75;;;22.05;;
39674;SDS011;27790;50.840;4.386;2022-12-05T06:58:32;56.22;;;23.83;;
39674;SDS011;27790;50.840;4.386;2022-12-05T07:00:57;43.40;;;20.38;;
39674;SDS011;27790;50.840;4.386;2022-12-05T07:03:34;47.60;;;22.10;;
39674;SDS011;27790;50.840;4.386;2022-12-05T07:06:00;41.45;;;19.85;;
39674;SDS011;27790;50.840;4.386;2022-12-05T07:08:26;48.35;;;22.48;;
39674;SDS011;27790;50.840;4.386;2022-12-05T07:10:52;48.22;;;22.65;;
39674;SDS011;27790;50.840;4.386;2022-12-05T07:13:17;47.75;;;22.83;;
39674;SDS011;27790;50.840;4.386;2022-12-05T07:15:45;48.00;;;21.67;;
39674;SDS011;27790;50.840;4.386;2022-12-05T07:18:12;41.25;;;20.13;;
39674;SDS011;27790;50.840;4.386;2022-12-05T07:20:38;49.47;;;20.85;;
39674;SDS011;27790;50.840;4.386;2022-12-05T07:23:04;47.47;;;20.58;;
39674;SDS011;27790;50.840;4.386;2022-12-05T07:25:30;51.45;;;21.35;;
39674;SDS011;27790;50.840;4.386;2022-12-05T07:27:56;45.97;;;22.33;;
39674;SDS011;27790;50.840;4.386;2022-12-05T07:30:21;43.58;;;19.90;;
39674;SDS011;27790;50.840;4.386;2022-12-05T07:32:47;40.70;;;19.83;;
39674;SDS011;27790;50.840;4.386;2022-12-05T07:35:13;47.33;;;21.50;;
39674;SDS011;27790;50.840;4.386;2022-12-05T07:37:38;46.58;;;20.80;;
39674;SDS011;27790;50.840;4.386;2022-12-05T07:40:04;46.33;;;22.35;;
39674;SDS011;27790;50.840;4.386;2022-12-05T07:42:32;47.30;;;22.25;;
39674;SDS011;27790;50.840;4.386;2022-12-05T07:44:57;40.40;;;20.60;;
39674;SDS011;27790;50.840;4.386;2022-12-05T07:47:23;43.70;;;21.35;;
39674;SDS011;27790;50.840;4.386;2022-12-05T07:49:48;44.22;;;20.65;;
39674;SDS011;27790;50.840;4.386;2022-12-05T07:52:15;46.03;;;20.75;;
39674;SDS011;27790;50.840;4.386;2022-12-05T07:54:41;53.83;;;21.33;;
39674;SDS011;27790;50.840;4.386;2022-12-05T07:57:06;49.33;;;22.63;;
39674;SDS011;27790;50.840;4.386;2022-12-05T07:59:32;49.60;;;22.25;;
39674;SDS011;27790;50.840;4.386;2022-12-05T08:01:58;51.33;;;24.33;;
39674;SDS011;27790;50.840;4.386;2022-12-05T08:04:23;47.95;;;21.42;;
39674;SDS011;27790;50.840;4.386;2022-12-05T08:06:52;49.17;;;22.48;;
39674;SDS011;27790;50.840;4.386;2022-12-05T08:09:17;45.72;;;20.40;;
39674;SDS011;27790;50.840;4.386;2022-12-05T08:11:44;46.58;;;21.33;;
39674;SDS011;27790;50.840;4.386;2022-12-05T08:14:10;46.80;;;21.65;;
39674;SDS011;27790;50.840;4.386;2022-12-05T08:16:38;43.90;;;19.55;;
39674;SDS011;27790;50.840;4.386;2022-12-05T08:19:05;48.08;;;21.65;;
39674;SDS011;27790;50.840;4.386;2022-12-05T08:21:32;37.58;;;18.27;;
39674;SDS011;27790;50.840;4.386;2022-12-05T08:23:58;48.08;;;21.50;;
39674;SDS011;27790;50.840;4.386;2022-12-05T08:26:25;39.85;;;19.27;;
39674;SDS011;27790;50.840;4.386;2022-12-05T08:28:53;41.00;;;20.00;;
39674;SDS011;27790;50.840;4.386;2022-12-05T08:31:21;40.60;;;19.98;;
39674;SDS011;27790;50.840;4.386;2022-12-05T08:33:48;40.00;;;19.73;;
39674;SDS011;27790;50.840;4.386;2022-12-05T08:36:15;43.88;;;19.77;;
39674;SDS011;27790;50.840;4.386;2022-12-05T08:38:42;39.58;;;18.15;;
39674;SDS011;27790;50.840;4.386;2022-12-05T08:41:10;42.78;;;18.63;;
39674;SDS011;27790;50.840;4.386;2022-12-05T08:43:38;34.58;;;18.08;;
39674;SDS011;27790;50.840;4.386;2022-12-05T08:46:05;33.45;;;17.23;;
39674;SDS011;27790;50.840;4.386;2022-12-05T08:48:31;32.47;;;17.13;;
39674;SDS011;27790;50.840;4.386;2022-12-05T08:50:58;37.47;;;16.58;;
39674;SDS011;27790;50.840;4.386;2022-12-05T08:53:28;31.58;;;16.40;;
39674;SDS011;27790;50.840;4.386;2022-12-05T08:55:54;31.88;;;17.20;;
39674;SDS011;27790;50.840;4.386;2022-12-05T08:58:19;34.13;;;17.27;;
39674;SDS011;27790;50.840;4.386;2022-12-05T09:00:45;41.83;;;18.23;;
39674;SDS011;27790;50.840;4.386;2022-12-05T09:03:10;34.30;;;15.95;;
39674;SDS011;27790;50.840;4.386;2022-12-05T09:05:36;32.47;;;16.80;;
39674;SDS011;27790;50.840;4.386;2022-12-05T09:08:03;32.92;;;14.88;;
39674;SDS011;27790;50.840;4.386;2022-12-05T09:10:28;38.35;;;18.00;;
39674;SDS011;27790;50.840;4.386;2022-12-05T09:12:54;28.40;;;16.15;;
39674;SDS011;27790;50.840;4.386;2022-12-05T09:15:20;31.60;;;16.88;;
39674;SDS011;27790;50.840;4.386;2022-12-05T09:17:45;39.10;;;18.08;;
39674;SDS011;27790;50.840;4.386;2022-12-05T09:20:11;27.20;;;15.98;;
39674;SDS011;27790;50.840;4.386;2022-12-05T09:22:38;32.88;;;17.20;;
39674;SDS011;27790;50.840;4.386;2022-12-05T09:25:07;28.92;;;16.02;;
39674;SDS011;27790;50.840;4.386;2022-12-05T09:27:33;28.83;;;16.58;;
39674;SDS011;27790;50.840;4.386;2022-12-05T09:29:59;28.20;;;15.43;;
39674;SDS011;27790;50.840;4.386;2022-12-05T09:32:24;24.98;;;14.73;;
39674;SDS011;27790;50.840;4.386;2022-12-05T09:34:50;26.20;;;14.38;;
39674;SDS011;27790;50.840;4.386;2022-12-05T09:37:16;24.05;;;14.80;;
39674;SDS011;27790;50.840;4.386;2022-12-05T09:39:44;29.23;;;15.57;;
39674;SDS011;27790;50.840;4.386;2022-12-05T09:52:55;25.00;;;12.93;;
39674;SDS011;27790;50.840;4.386;2022-12-05T09:55:28;20.30;;;11.43;;
39674;SDS011;27790;50.840;4.386;2022-12-05T09:58:14;18.95;;;10.20;;
39674;SDS011;27790;50.840;4.386;2022-12-05T10:00:44;19.30;;;11.95;;
39674;SDS011;27790;50.840;4.386;2022-12-05T10:06:36;17.27;;;10.55;;
39674;SDS011;27790;50.840;4.386;2022-12-05T10:16:38;19.20;;;10.77;;
39674;SDS011;27790;50.840;4.386;2022-12-05T10:19:30;13.07;;;8.95;;
39674;SDS011;27790;50.840;4.386;2022-12-05T10:24:46;19.45;;;11.23;;
39674;SDS011;27790;50.840;4.386;2022-12-05T10:28:04;19.85;;;10.73;;
39674;SDS011;27790;50.840;4.386;2022-12-05T10:30:20;18.45;;;9.35;;
39674;SDS011;27790;50.840;4.386;2022-12-05T10:32:54;17.20;;;10.02;;
39674;SDS011;27790;50.840;4.386;2022-12-05T10:35:32;15.68;;;9.57;;
39674;SDS011;27790;50.840;4.386;2022-12-05T10:38:02;21.92;;;11.27;;
39674;SDS011;27790;50.840;4.386;2022-12-05T10:40:37;16.77;;;10.88;;
39674;SDS011;27790;50.840;4.386;2022-12-05T10:43:09;19.75;;;10.88;;
39674;SDS011;27790;50.840;4.386;2022-12-05T10:45:42;61.20;;;12.65;;
39674;SDS011;27790;50.840;4.386;2022-12-05T10:48:13;18.65;;;11.02;;
39674;SDS011;27790;50.840;4.386;2022-12-05T10:50:41;19.50;;;12.43;;
39674;SDS011;27790;50.840;4.386;2022-12-05T10:53:10;20.77;;;11.57;;
39674;SDS011;27790;50.840;4.386;2022-12-05T10:55:40;17.23;;;11.70;;
39674;SDS011;27790;50.840;4.386;2022-12-05T11:00:33;14.25;;;10.38;;
39674;SDS011;27790;50.840;4.386;2022-12-05T11:02:59;18.42;;;11.10;;
39674;SDS011;27790;50.840;4.386;2022-12-05T11:05:30;15.27;;;9.40;;
39674;SDS011;27790;50.840;4.386;2022-12-05T11:07:58;14.57;;;10.35;;
39674;SDS011;27790;50.840;4.386;2022-12-05T11:10:25;15.27;;;10.25;;
39674;SDS011;27790;50.840;4.386;2022-12-05T11:13:14;11.77;;;7.95;;
39674;SDS011;27790;50.840;4.386;2022-12-05T11:15:47;14.05;;;7.65;;
39674;SDS011;27790;50.840;4.386;2022-12-05T11:20:53;14.10;;;10.00;;
39674;SDS011;27790;50.840;4.386;2022-12-05T11:25:49;13.82;;;8.73;;
39674;SDS011;27790;50.840;4.386;2022-12-05T11:30:41;16.20;;;10.93;;
39674;SDS011;27790;50.840;4.386;2022-12-05T11:33:25;14.18;;;10.82;;
39674;SDS011;27790;50.840;4.386;2022-12-05T11:35:53;12.82;;;9.95;;
39674;SDS011;27790;50.840;4.386;2022-12-05T11:38:25;14.50;;;10.07;;
39674;SDS011;27790;50.840;4.386;2022-12-05T11:41:17;15.00;;;10.32;;
39674;SDS011;27790;50.840;4.386;2022-12-05T11:46:40;14.32;;;10.25;;
39674;SDS011;27790;50.840;4.386;2022-12-05T11:52:29;13.93;;;8.07;;
39674;SDS011;27790;50.840;4.386;2022-12-05T11:57:58;10.50;;;7.88;;
39674;SDS011;27790;50.840;4.386;2022-12-05T12:00:46;22.15;;;15.35;;
39674;SDS011;27790;50.840;4.386;2022-12-05T12:03:24;7.63;;;6.53;;
39674;SDS011;27790;50.840;4.386;2022-12-05T12:08:40;11.73;;;7.90;;
39674;SDS011;27790;50.840;4.386;2022-12-05T12:11:23;14.60;;;8.77;;
39674;SDS011;27790;50.840;4.386;2022-12-05T12:22:09;15.30;;;9.90;;
39674;SDS011;27790;50.840;4.386;2022-12-05T12:24:48;13.73;;;10.05;;
39674;SDS011;27790;50.840;4.386;2022-12-05T12:30:23;18.42;;;11.65;;
39674;SDS011;27790;50.840;4.386;2022-12-05T12:35:31;18.70;;;12.13;;
39674;SDS011;27790;50.840;4.386;2022-12-05T12:51:00;16.45;;;11.48;;
39674;SDS011;27790;50.840;4.386;2022-12-05T12:53:35;22.33;;;11.90;;
39674;SDS011;27790;50.840;4.386;2022-12-05T13:04:32;22.13;;;12.48;;
39674;SDS011;27790;50.840;4.386;2022-12-05T13:07:12;22.65;;;13.30;;
39674;SDS011;27790;50.840;4.386;2022-12-05T13:09:48;21.13;;;13.35;;
39674;SDS011;27790;50.840;4.386;2022-12-05T13:12:21;19.33;;;12.73;;
39674;SDS011;27790;50.840;4.386;2022-12-05T13:14:52;21.08;;;13.25;;
39674;SDS011;27790;50.840;4.386;2022-12-05T13:17:25;19.83;;;10.63;;
39674;SDS011;27790;50.840;4.386;2022-12-05T13:19:53;16.73;;;11.77;;
39674;SDS011;27790;50.840;4.386;2022-12-05T13:22:21;18.17;;;10.65;;
39674;SDS011;27790;50.840;4.386;2022-12-05T13:24:51;17.20;;;9.75;;
39674;SDS011;27790;50.840;4.386;2022-12-05T13:27:19;14.05;;;9.75;;
39674;SDS011;27790;50.840;4.386;2022-12-05T13:32:31;15.68;;;10.15;;
39674;SDS011;27790;50.840;4.386;2022-12-05T13:37:57;19.35;;;10.52;;
39674;SDS011;27790;50.840;4.386;2022-12-05T13:40:34;14.30;;;9.55;;
39674;SDS011;27790;50.840;4.386;2022-12-05T13:43:16;12.60;;;9.20;;
39674;SDS011;27790;50.840;4.386;2022-12-05T13:48:24;17.05;;;9.65;;
39674;SDS011;27790;50.840;4.386;2022-12-05T13:51:00;15.30;;;10.82;;
39674;SDS011;27790;50.840;4.386;2022-12-05T14:17:20;17.77;;;11.35;;
39674;SDS011;27790;50.840;4.386;2022-12-05T14:19:53;21.15;;;11.95;;
39674;SDS011;27790;50.840;4.386;2022-12-05T14:36:36;17.45;;;11.48;;
39674;SDS011;27790;50.840;4.386;2022-12-05T14:39:28;19.63;;;10.88;;
39674;SDS011;27790;50.840;4.386;2022-12-05T14:42:02;16.48;;;11.35;;
39674;SDS011;27790;50.840;4.386;2022-12-05T14:44:44;15.65;;;10.73;;
39674;SDS011;27790;50.840;4.386;2022-12-05T14:47:11;17.23;;;9.60;;
39674;SDS011;27790;50.840;4.386;2022-12-05T14:52:18;18.60;;;11.03;;
39674;SDS011;27790;50.840;4.386;2022-12-05T14:54:47;19.08;;;11.75;;
39674;SDS011;27790;50.840;4.386;2022-12-05T14:57:13;17.92;;;12.40;;
39674;SDS011;27790;50.840;4.386;2022-12-05T14:59:52;17.95;;;12.95;;
39674;SDS011;27790;50.840;4.386;2022-12-05T15:02:26;19.48;;;11.48;;
39674;SDS011;27790;50.840;4.386;2022-12-05T15:05:08;20.15;;;13.27;;
39674;SDS011;27790;50.840;4.386;2022-12-05T15:07:46;24.70;;;14.38;;
39674;SDS011;27790;50.840;4.386;2022-12-05T15:12:47;25.02;;;14.25;;
39674;SDS011;27790;50.840;4.386;2022-12-05T15:20:43;27.45;;;14.63;;
39674;SDS011;27790;50.840;4.386;2022-12-05T15:26:02;30.50;;;16.52;;
39674;SDS011;27790;50.840;4.386;2022-12-05T15:28:29;34.95;;;16.38;;
39674;SDS011;27790;50.840;4.386;2022-12-05T15:30:55;32.65;;;17.52;;
39674;SDS011;27790;50.840;4.386;2022-12-05T15:33:21;30.70;;;16.67;;
39674;SDS011;27790;50.840;4.386;2022-12-05T15:35:50;33.25;;;17.48;;
39674;SDS011;27790;50.840;4.386;2022-12-05T15:38:23;36.67;;;18.40;;
39674;SDS011;27790;50.840;4.386;2022-12-05T15:40:52;36.35;;;18.58;;
39674;SDS011;27790;50.840;4.386;2022-12-05T15:46:05;44.58;;;19.75;;
39674;SDS011;27790;50.840;4.386;2022-12-05T15:48:32;34.67;;;16.90;;
39674;SDS011;27790;50.840;4.386;2022-12-05T15:50:58;31.30;;;17.95;;
39674;SDS011;27790;50.840;4.386;2022-12-05T15:53:30;39.95;;;20.65;;
39674;SDS011;27790;50.840;4.386;2022-12-05T16:01:21;38.63;;;19.90;;
39674;SDS011;27790;50.840;4.386;2022-12-05T16:06:17;42.88;;;20.00;;
39674;SDS011;27790;50.840;4.386;2022-12-05T16:08:49;41.63;;;21.60;;
39674;SDS011;27790;50.840;4.386;2022-12-05T16:11:16;40.95;;;21.70;;
39674;SDS011;27790;50.840;4.386;2022-12-05T16:13:43;46.58;;;22.23;;
39674;SDS011;27790;50.840;4.386;2022-12-05T16:16:18;44.22;;;20.95;;
39674;SDS011;27790;50.840;4.386;2022-12-05T16:18:54;42.83;;;22.50;;
39674;SDS011;27790;50.840;4.386;2022-12-05T16:24:06;52.92;;;22.95;;
39674;SDS011;27790;50.840;4.386;2022-12-05T16:26:57;46.88;;;22.50;;
39674;SDS011;27790;50.840;4.386;2022-12-05T16:29:26;42.88;;;21.85;;
39674;SDS011;27790;50.840;4.386;2022-12-05T16:31:56;44.90;;;22.65;;
39674;SDS011;27790;50.840;4.386;2022-12-05T16:34:24;54.67;;;25.75;;
39674;SDS011;27790;50.840;4.386;2022-12-05T16:36:51;50.25;;;24.38;;
39674;SDS011;27790;50.840;4.386;2022-12-05T16:39:18;47.50;;;23.38;;
39674;SDS011;27790;50.840;4.386;2022-12-05T16:41:44;47.25;;;22.75;;
39674;SDS011;27790;50.840;4.386;2022-12-05T16:46:58;43.90;;;22.35;;
39674;SDS011;27790;50.840;4.386;2022-12-05T16:52:07;42.22;;;21.85;;
39674;SDS011;27790;50.840;4.386;2022-12-05T16:54:38;41.15;;;22.92;;
39674;SDS011;27790;50.840;4.386;2022-12-05T16:57:05;41.85;;;23.00;;
39674;SDS011;27790;50.840;4.386;2022-12-05T16:59:34;41.50;;;22.60;;
39674;SDS011;27790;50.840;4.386;2022-12-05T17:02:02;38.03;;;20.55;;
39674;SDS011;27790;50.840;4.386;2022-12-05T17:04:29;39.05;;;20.65;;
39674;SDS011;27790;50.840;4.386;2022-12-05T17:06:55;35.45;;;20.55;;
39674;SDS011;27790;50.840;4.386;2022-12-05T17:09:21;43.00;;;22.27;;
39674;SDS011;27790;50.840;4.386;2022-12-05T17:11:47;37.55;;;20.30;;
39674;SDS011;27790;50.840;4.386;2022-12-05T17:14:15;41.65;;;22.77;;
39674;SDS011;27790;50.840;4.386;2022-12-05T17:16:42;40.38;;;22.20;;
39674;SDS011;27790;50.840;4.386;2022-12-05T17:19:08;37.10;;;20.80;;
39674;SDS011;27790;50.840;4.386;2022-12-05T17:21:35;44.63;;;23.00;;
39674;SDS011;27790;50.840;4.386;2022-12-05T17:24:02;37.05;;;20.25;;
39674;SDS011;27790;50.840;4.386;2022-12-05T17:26:28;36.53;;;20.02;;
39674;SDS011;27790;50.840;4.386;2022-12-05T17:28:53;37.72;;;20.50;;
39674;SDS011;27790;50.840;4.386;2022-12-05T17:31:20;41.08;;;21.50;;
39674;SDS011;27790;50.840;4.386;2022-12-05T17:33:47;38.92;;;20.55;;
39674;SDS011;27790;50.840;4.386;2022-12-05T17:36:14;42.20;;;22.30;;
39674;SDS011;27790;50.840;4.386;2022-12-05T17:38:40;39.65;;;23.20;;
39674;SDS011;27790;50.840;4.386;2022-12-05T17:41:07;39.88;;;22.75;;
39674;SDS011;27790;50.840;4.386;2022-12-05T17:43:39;40.00;;;22.77;;
39674;SDS011;27790;50.840;4.386;2022-12-05T17:46:05;46.45;;;24.95;;
39674;SDS011;27790;50.840;4.386;2022-12-05T17:48:31;42.47;;;23.95;;
39674;SDS011;27790;50.840;4.386;2022-12-05T17:50:57;41.38;;;24.23;;
39674;SDS011;27790;50.840;4.386;2022-12-05T17:53:24;41.35;;;22.83;;
39674;SDS011;27790;50.840;4.386;2022-12-05T17:55:49;38.70;;;22.58;;
39674;SDS011;27790;50.840;4.386;2022-12-05T17:58:16;45.85;;;23.63;;
39674;SDS011;27790;50.840;4.386;2022-12-05T18:00:42;42.72;;;23.58;;
39674;SDS011;27790;50.840;4.386;2022-12-05T18:03:11;42.58;;;23.45;;